createdAt,value
2018-04-22T00:01:01.353Z,4.20
2018-04-22T00:03:29.575Z,3.97
2018-04-22T00:05:57.814Z,4.50
2018-04-22T00:08:26.802Z,4.40
2018-04-22T00:10:55.813Z,5.40
2018-04-22T00:13:24.046Z,5.77
2018-04-22T00:15:52.303Z,5.63
2018-04-22T00:18:20.528Z,5.90
2018-04-22T00:20:48.770Z,4.30
2018-04-22T00:23:16.987Z,7.10
2018-04-22T00:25:45.231Z,4.07
2018-04-22T00:28:14.231Z,4.20
2018-04-22T00:30:43.234Z,5.27
2018-04-22T00:33:11.839Z,4.77
2018-04-22T00:35:40.820Z,5.03
2018-04-22T00:38:09.044Z,7.93
2018-04-22T00:40:37.272Z,5.77
2018-04-22T00:43:05.493Z,8.17
2018-04-22T00:45:33.762Z,5.57
2018-04-22T00:48:01.945Z,5.47
2018-04-22T00:50:30.170Z,5.00
2018-04-22T00:52:58.394Z,3.87
2018-04-22T00:55:26.878Z,3.43
2018-04-22T00:57:55.107Z,3.13
2018-04-22T01:00:23.328Z,6.33
2018-04-22T01:02:51.563Z,3.97
2018-04-22T01:05:19.782Z,4.47
2018-04-22T01:07:48.785Z,5.27
2018-04-22T01:10:17.007Z,5.03
2018-04-22T01:12:45.239Z,4.17
2018-04-22T01:15:13.459Z,3.80
2018-04-22T01:17:42.469Z,4.80
2018-04-22T01:20:10.691Z,6.17
2018-04-22T01:22:38.925Z,5.93
2018-04-22T01:25:07.150Z,7.43
2018-04-22T01:27:35.375Z,8.57
2018-04-22T01:30:03.591Z,4.40
2018-04-22T01:32:31.821Z,6.67
2018-04-22T01:35:00.048Z,5.03
2018-04-22T01:37:28.279Z,6.70
2018-04-22T01:39:57.263Z,6.53
2018-04-22T01:42:26.264Z,6.00
2018-04-22T01:44:55.252Z,5.53
2018-04-22T01:47:24.250Z,4.73
2018-04-22T01:49:53.238Z,5.73
2018-04-22T01:52:22.247Z,6.17
2018-04-22T01:54:51.227Z,4.70
2018-04-22T01:57:20.223Z,5.33
2018-04-22T01:59:48.451Z,5.27
2018-04-22T02:02:16.682Z,4.90
2018-04-22T02:04:44.911Z,5.23
2018-04-22T02:07:13.129Z,5.80
2018-04-22T02:09:41.353Z,6.57
2018-04-22T02:12:09.579Z,6.60
2018-04-22T02:14:37.807Z,6.90
2018-04-22T02:17:06.035Z,5.03
2018-04-22T02:19:34.260Z,6.03
2018-04-22T02:22:02.487Z,7.10
2018-04-22T02:24:30.711Z,5.53
2018-04-22T02:26:58.935Z,6.73
2018-04-22T02:29:27.160Z,6.30
2018-04-22T02:31:56.160Z,4.43
2018-04-22T02:34:25.150Z,5.13
2018-04-22T02:36:54.150Z,5.87
2018-04-22T02:39:22.367Z,6.43
2018-04-22T02:41:50.596Z,5.40
2018-04-22T02:44:18.818Z,5.40
2018-04-22T02:46:47.839Z,5.53
2018-04-22T02:49:16.064Z,6.10
2018-04-22T02:51:44.283Z,5.27
2018-04-22T02:54:12.523Z,5.43
2018-04-22T02:56:40.732Z,5.57
2018-04-22T02:59:08.967Z,6.23
2018-04-22T03:01:37.189Z,4.53
2018-04-22T03:04:06.191Z,5.93
2018-04-22T03:06:35.180Z,8.53
2018-04-22T03:09:04.178Z,6.43
2018-04-22T03:11:33.165Z,7.37
2018-04-22T03:14:02.167Z,5.10
2018-04-22T03:16:30.389Z,6.67
2018-04-22T03:18:58.613Z,5.43
2018-04-22T03:21:26.845Z,6.07
2018-04-22T03:23:55.075Z,4.23
2018-04-22T03:26:23.301Z,6.37
2018-04-22T03:28:51.540Z,8.17
2018-04-22T03:31:19.755Z,6.00
2018-04-22T03:33:48.759Z,6.47
2018-04-22T03:36:17.747Z,5.03
2018-04-22T03:38:46.751Z,6.43
2018-04-22T03:41:14.970Z,5.60
2018-04-22T03:43:43.475Z,5.57
2018-04-22T03:46:11.695Z,5.97
2018-04-22T03:48:39.932Z,6.03
2018-04-22T03:51:08.148Z,4.93
2018-04-22T03:53:36.383Z,6.97
2018-04-22T03:56:05.399Z,7.73
2018-04-22T03:58:33.640Z,6.00
2018-04-22T04:01:01.867Z,7.20
2018-04-22T04:03:30.095Z,8.40
2018-04-22T04:05:59.483Z,9.10
2018-04-22T04:08:27.704Z,9.57
2018-04-22T04:10:55.930Z,10.17
2018-04-22T04:13:24.172Z,9.33
2018-04-22T04:15:52.407Z,7.67
2018-04-22T04:21:44.658Z,8.13
2018-04-22T04:27:44.985Z,7.83
2018-04-22T04:30:13.983Z,5.43
2018-04-22T04:32:42.972Z,6.30
2018-04-22T04:35:11.966Z,8.00
2018-04-22T04:37:40.959Z,7.10
2018-04-22T04:40:09.954Z,7.30
2018-04-22T04:42:38.184Z,7.60
2018-04-22T04:45:07.187Z,8.87
2018-04-22T04:47:35.412Z,7.40
2018-04-22T04:50:03.651Z,9.53
2018-04-22T04:52:31.868Z,7.47
2018-04-22T04:55:00.113Z,7.37
2018-04-22T04:57:29.088Z,5.17
2018-04-22T04:59:58.090Z,7.30
2018-04-22T05:02:27.075Z,9.37
2018-04-22T05:04:56.079Z,7.47
2018-04-22T05:07:25.062Z,8.07
2018-04-22T05:09:54.059Z,5.83
2018-04-22T05:12:23.042Z,5.93
2018-04-22T05:14:52.043Z,5.73
2018-04-22T05:17:21.037Z,4.83
2018-04-22T05:19:50.112Z,9.43
2018-04-22T05:22:18.327Z,7.10
2018-04-22T05:24:46.555Z,8.17
2018-04-22T05:27:14.784Z,5.67
2018-04-22T05:29:43.015Z,7.37
2018-04-22T05:32:12.009Z,6.50
2018-04-22T05:34:41.157Z,9.93
2018-04-22T05:39:42.627Z,6.17
2018-04-22T05:42:10.864Z,6.17
2018-04-22T05:44:39.105Z,7.07
2018-04-22T05:47:08.094Z,7.63
2018-04-22T05:49:37.106Z,6.70
2018-04-22T05:52:05.345Z,6.53
2018-04-22T05:54:33.576Z,9.97
2018-04-22T05:57:01.806Z,7.07
2018-04-22T05:59:30.803Z,6.87
2018-04-22T06:01:59.030Z,7.63
2018-04-22T06:04:27.260Z,6.10
2018-04-22T06:06:56.267Z,6.83
2018-04-22T06:09:24.506Z,8.47
2018-04-22T06:11:52.755Z,6.10
2018-04-22T06:14:20.977Z,5.40
2018-04-22T06:16:49.356Z,9.67
2018-04-22T06:19:17.555Z,5.73
2018-04-22T06:21:45.799Z,6.13
2018-04-22T06:24:14.790Z,6.93
2018-04-22T06:26:43.035Z,6.77
2018-04-22T06:29:11.259Z,7.77
2018-04-22T06:31:39.500Z,6.37
2018-04-22T06:34:08.488Z,8.13
2018-04-22T06:36:37.493Z,5.73
2018-04-22T06:39:06.491Z,7.83
2018-04-22T06:41:34.735Z,7.93
2018-04-22T06:44:02.962Z,5.57
2018-04-22T06:46:31.284Z,6.47
2018-04-22T06:48:59.486Z,7.77
2018-04-22T06:51:27.728Z,7.60
2018-04-22T06:53:55.950Z,8.07
2018-04-22T06:56:24.183Z,9.07
2018-04-22T06:58:53.174Z,5.57
2018-04-22T07:01:22.215Z,7.93
2018-04-22T07:03:51.174Z,7.03
2018-04-22T07:06:20.189Z,9.33
2018-04-22T07:08:48.413Z,8.67
2018-04-22T07:11:16.647Z,6.30
2018-04-22T07:13:44.878Z,8.87
2018-04-22T07:16:13.884Z,6.97
2018-04-22T07:18:42.110Z,9.20
2018-04-22T07:21:10.354Z,8.67
2018-04-22T07:23:38.986Z,8.70
2018-04-22T07:26:07.200Z,9.80
2018-04-22T07:28:35.418Z,8.93
2018-04-22T07:31:03.684Z,10.13
2018-04-22T07:33:31.909Z,8.33
2018-04-22T07:36:00.149Z,8.40
2018-04-22T07:38:28.378Z,7.37
2018-04-22T07:40:56.622Z,9.77
2018-04-22T07:43:25.619Z,8.37
2018-04-22T07:45:53.846Z,10.30
2018-04-22T07:48:22.095Z,8.60
2018-04-22T07:50:50.319Z,8.93
2018-04-22T07:53:19.327Z,6.80
2018-04-22T07:55:48.310Z,8.43
2018-04-22T07:58:17.378Z,9.67
2018-04-22T08:00:45.603Z,9.30
2018-04-22T08:03:13.849Z,10.27
2018-04-22T08:05:42.848Z,8.07
2018-04-22T08:08:11.849Z,9.13
2018-04-22T08:10:40.076Z,8.30
2018-04-22T08:13:08.325Z,10.27
2018-04-22T08:15:36.551Z,10.23
2018-04-22T08:18:05.553Z,9.90
2018-04-22T08:20:34.558Z,8.50
2018-04-22T08:23:02.800Z,9.33
2018-04-22T08:25:31.039Z,9.57
2018-04-22T08:27:59.290Z,10.07
2018-04-22T08:30:27.524Z,10.50
2018-04-22T08:32:55.758Z,8.73
2018-04-22T08:35:23.978Z,9.10
2018-04-22T08:37:52.987Z,10.90
2018-04-22T08:40:21.211Z,9.97
2018-04-22T08:42:49.447Z,9.60
2018-04-22T08:45:17.683Z,11.90
2018-04-22T08:47:45.934Z,11.37
2018-04-22T08:50:14.170Z,11.37
2018-04-22T08:52:42.410Z,10.23
2018-04-22T08:55:11.401Z,11.63
2018-04-22T08:57:40.459Z,10.20
2018-04-22T09:00:08.690Z,11.87
2018-04-22T09:02:36.928Z,10.10
2018-04-22T09:05:05.159Z,11.00
2018-04-22T09:07:33.400Z,9.60
2018-04-22T09:10:02.388Z,9.70
2018-04-22T09:12:31.408Z,10.13
2018-04-22T09:14:59.643Z,12.83
2018-04-22T09:17:28.853Z,11.20
2018-04-22T09:19:57.843Z,10.97
2018-04-22T09:22:26.951Z,12.57
2018-04-22T09:24:55.530Z,11.63
2018-04-22T09:27:24.541Z,13.60
2018-04-22T09:29:52.767Z,12.47
2018-04-22T09:32:21.793Z,11.67
2018-04-22T09:34:50.028Z,11.53
2018-04-22T09:37:19.063Z,12.13
2018-04-22T09:39:47.345Z,12.30
2018-04-22T09:42:15.598Z,12.47
2018-04-22T09:44:43.844Z,13.60
2018-04-22T09:47:12.085Z,14.53
2018-04-22T09:49:40.335Z,12.37
2018-04-22T09:52:08.710Z,12.30
2018-04-22T09:54:37.084Z,12.47
2018-04-22T09:57:05.350Z,11.53
2018-04-22T09:59:34.343Z,11.73
2018-04-22T10:02:02.597Z,10.87
2018-04-22T10:04:37.443Z,11.20
2018-04-22T10:07:05.721Z,11.83
2018-04-22T10:09:34.002Z,12.53
2018-04-22T10:12:02.246Z,12.17
2018-04-22T10:14:31.260Z,14.17
2018-04-22T10:16:59.512Z,13.77
2018-04-22T10:19:28.535Z,12.87
2018-04-22T10:21:56.800Z,12.37
2018-04-22T10:24:25.793Z,12.87
2018-04-22T10:26:54.039Z,14.10
2018-04-22T10:29:23.051Z,12.40
2018-04-22T10:31:51.293Z,14.33
2018-04-22T10:34:19.543Z,13.13
2018-04-22T10:36:47.776Z,13.07
2018-04-22T10:39:16.047Z,12.73
2018-04-22T10:41:44.283Z,12.67
2018-04-22T10:44:12.531Z,12.17
2018-04-22T10:46:41.579Z,14.03
2018-04-22T10:49:09.787Z,13.33
2018-04-22T10:51:38.025Z,15.57
2018-04-22T10:54:07.049Z,13.07
2018-04-22T10:56:35.285Z,13.40
2018-04-22T10:59:04.345Z,15.60
2018-04-22T11:01:32.540Z,13.10
2018-04-22T11:04:00.826Z,13.80
2018-04-22T11:06:29.836Z,12.97
2018-04-22T11:08:58.839Z,12.53
2018-04-22T11:11:27.077Z,16.07
2018-04-22T11:13:56.097Z,13.63
2018-04-22T11:16:24.326Z,12.20
2018-04-22T11:18:52.592Z,13.43
2018-04-22T11:21:20.835Z,14.23
2018-04-22T11:23:49.079Z,13.70
2018-04-22T11:26:18.079Z,14.87
2018-04-22T11:28:46.339Z,14.80
2018-04-22T11:31:15.340Z,13.07
2018-04-22T11:33:44.351Z,12.87
2018-04-22T11:36:12.587Z,13.73
2018-04-22T11:38:41.603Z,14.20
2018-04-22T11:41:09.842Z,14.13
2018-04-22T11:43:38.083Z,13.60
2018-04-22T11:46:06.331Z,15.35
2018-04-22T11:48:34.563Z,13.30
2018-04-22T11:51:02.812Z,14.10
2018-04-22T11:53:31.084Z,14.77
2018-04-22T11:55:59.295Z,15.18
2018-04-22T11:58:28.308Z,14.85
2018-04-22T12:00:56.567Z,15.52
2018-04-22T12:03:25.567Z,14.93
2018-04-22T12:05:54.582Z,16.05
2018-04-22T12:08:22.827Z,14.20
2018-04-22T12:10:51.852Z,14.70
2018-04-22T12:13:20.096Z,14.90
2018-04-22T12:15:49.112Z,15.23
2018-04-22T12:18:17.346Z,15.90
2018-04-22T12:20:45.626Z,15.20
2018-04-22T12:23:14.631Z,15.18
2018-04-22T12:25:43.640Z,14.43
2018-04-22T12:28:12.153Z,14.63
2018-04-22T12:30:40.511Z,15.07
2018-04-22T12:33:08.775Z,14.48
2018-04-22T12:35:37.055Z,15.57
2018-04-22T12:38:05.285Z,15.98
2018-04-22T12:40:33.526Z,15.48
2018-04-22T12:43:02.526Z,16.02
2018-04-22T12:45:30.778Z,15.50
2018-04-22T12:47:59.783Z,16.17
2018-04-22T12:50:28.799Z,15.93
2018-04-22T12:52:57.052Z,15.82
2018-04-22T12:55:26.067Z,14.95
2018-04-22T12:57:54.309Z,14.93
2018-04-22T13:00:23.371Z,18.77
2018-04-22T13:02:51.591Z,13.18
2018-04-22T13:05:19.843Z,14.85
2018-04-22T13:07:48.841Z,14.38
2018-04-22T13:10:17.935Z,14.30
2018-04-22T13:12:46.971Z,14.10
2018-04-22T13:15:15.218Z,14.77
2018-04-22T13:17:43.460Z,14.98
2018-04-22T13:20:11.707Z,13.62
2018-04-22T13:22:39.946Z,14.32
2018-04-22T13:25:08.202Z,14.80
2018-04-22T13:27:37.210Z,13.27
2018-04-22T13:30:05.463Z,12.27
2018-04-22T13:32:34.471Z,12.13
2018-04-22T13:35:02.726Z,11.45
2018-04-22T13:37:31.731Z,12.98
2018-04-22T13:39:59.982Z,11.50
2018-04-22T13:42:28.214Z,13.70
2018-04-22T13:44:56.459Z,11.18
2018-04-22T13:47:24.723Z,13.23
2018-04-22T13:49:53.724Z,12.70
2018-04-22T13:52:21.979Z,11.63
2018-04-22T13:54:50.970Z,11.60
2018-04-22T13:57:19.986Z,10.80
2018-04-22T13:59:48.229Z,11.20
2018-04-22T14:02:16.474Z,10.82
2018-04-22T14:04:44.700Z,12.63
2018-04-22T14:07:12.955Z,9.45
2018-04-22T14:09:41.178Z,12.45
2018-04-22T14:12:09.422Z,8.77
2018-04-22T14:14:37.652Z,8.68
2018-04-22T14:17:05.895Z,9.60
2018-04-22T14:19:34.144Z,9.25
2018-04-22T14:22:02.384Z,13.30
2018-04-22T14:24:30.607Z,9.65
2018-04-22T14:26:58.863Z,7.90
2018-04-22T14:29:29.652Z,8.83
2018-04-22T14:31:57.900Z,11.12
2018-04-22T14:34:26.131Z,11.07
2018-04-22T14:36:55.135Z,11.43
2018-04-22T14:39:23.366Z,8.57
2018-04-22T14:41:51.611Z,7.55
2018-04-22T14:44:31.660Z,10.07
2018-04-22T14:46:59.905Z,11.10
2018-04-22T14:49:28.139Z,11.20
2018-04-22T14:51:56.379Z,10.02
2018-04-22T14:54:24.635Z,11.40
2018-04-22T14:56:52.890Z,9.95
2018-04-22T14:59:21.107Z,8.60
2018-04-22T15:01:49.350Z,6.60
2018-04-22T15:04:17.579Z,8.15
2018-04-22T15:06:45.899Z,8.20
2018-04-22T15:09:15.274Z,8.98
2018-04-22T15:11:43.495Z,8.50
2018-04-22T15:14:13.255Z,12.60
2018-04-22T15:16:41.495Z,7.50
2018-04-22T15:19:09.730Z,7.70
2018-04-22T15:21:37.984Z,12.07
2018-04-22T15:24:06.219Z,10.73
2018-04-22T15:26:34.482Z,7.95
2018-04-22T15:29:02.711Z,8.95
2018-04-22T15:31:31.729Z,7.40
2018-04-22T15:33:59.965Z,7.30
2018-04-22T15:36:28.222Z,8.90
2018-04-22T15:38:56.454Z,11.07
2018-04-22T15:41:25.115Z,8.65
2018-04-22T15:43:53.474Z,9.77
2018-04-22T15:46:21.703Z,9.73
2018-04-22T15:48:49.947Z,11.65
2018-04-22T15:51:18.175Z,7.25
2018-04-22T15:53:46.420Z,8.35
2018-04-22T15:56:14.643Z,8.88
2018-04-22T15:58:42.886Z,10.43
2018-04-22T16:01:11.140Z,10.82
2018-04-22T16:03:39.464Z,10.40
2018-04-22T16:06:07.698Z,10.07
2018-04-22T16:08:35.992Z,13.80
2018-04-22T16:11:04.484Z,6.85
2018-04-22T16:13:32.870Z,10.38
2018-04-22T16:16:01.127Z,11.55
2018-04-22T16:18:29.437Z,10.03
2018-04-22T16:20:57.878Z,10.83
2018-04-22T16:23:26.143Z,14.23
2018-04-22T16:25:54.434Z,12.67
2018-04-22T16:28:22.682Z,6.97
2018-04-22T16:30:50.911Z,10.33
2018-04-22T16:33:19.918Z,8.90
2018-04-22T16:35:48.155Z,9.20
2018-04-22T16:38:16.395Z,8.93
2018-04-22T16:40:44.632Z,10.93
2018-04-22T16:43:13.651Z,9.07
2018-04-22T16:45:41.878Z,7.78
2018-04-22T16:48:10.115Z,14.53
2018-04-22T16:50:38.693Z,10.77
2018-04-22T16:53:06.897Z,13.23
2018-04-22T16:55:35.114Z,9.23
2018-04-22T16:58:03.365Z,10.03
2018-04-22T17:00:32.362Z,7.73
2018-04-22T17:03:01.363Z,10.43
2018-04-22T17:05:29.591Z,7.03
2018-04-22T17:07:57.839Z,8.60
2018-04-22T17:10:26.263Z,8.10
2018-04-22T17:12:56.078Z,5.43
2018-04-22T17:15:25.601Z,5.43
2018-04-22T17:17:54.707Z,5.77
2018-04-22T17:20:23.006Z,6.67
2018-04-22T17:22:51.361Z,4.70
2018-04-22T17:25:21.566Z,6.30
2018-04-22T17:27:50.714Z,6.60
2018-04-22T17:30:18.983Z,5.43
2018-04-22T17:32:47.221Z,6.83
2018-04-22T17:35:15.458Z,5.97
2018-04-22T17:37:43.778Z,3.87
2018-04-22T17:40:12.624Z,4.57
2018-04-22T17:42:40.973Z,6.07
2018-04-22T17:45:12.433Z,3.73
2018-04-22T17:47:43.047Z,5.00
2018-04-22T17:50:11.945Z,6.23
2018-04-22T17:52:40.309Z,2.50
2018-04-22T17:55:08.818Z,6.37
2018-04-22T17:57:37.123Z,2.87
2018-04-22T18:00:06.331Z,4.33
2018-04-22T18:02:34.711Z,3.30
2018-04-22T18:05:02.946Z,5.40
2018-04-22T18:07:31.177Z,3.07
2018-04-22T18:09:59.467Z,3.77
2018-04-22T18:12:27.726Z,3.37
2018-04-22T18:14:55.962Z,4.10
2018-04-22T18:17:24.186Z,2.80
2018-04-22T18:19:52.424Z,4.30
2018-04-22T18:22:20.743Z,4.50
2018-04-22T18:24:48.975Z,3.17
2018-04-22T18:27:17.212Z,2.33
2018-04-22T18:29:45.455Z,2.07
2018-04-22T18:32:13.683Z,3.80
2018-04-22T18:34:41.924Z,2.53
2018-04-22T18:37:10.155Z,2.20
2018-04-22T18:39:38.430Z,3.27
2018-04-22T18:42:06.666Z,2.80
2018-04-22T18:44:35.712Z,3.87
2018-04-22T18:47:03.902Z,2.50
2018-04-22T18:49:32.738Z,3.43
2018-04-22T18:52:01.082Z,3.73
2018-04-22T18:54:29.490Z,2.53
2018-04-22T18:56:58.458Z,3.03
2018-04-22T18:59:27.494Z,3.47
2018-04-22T19:01:55.805Z,5.83
2018-04-22T19:04:24.044Z,2.43
2018-04-22T19:06:52.576Z,2.00
2018-04-22T19:09:20.798Z,2.43
2018-04-22T19:11:49.031Z,6.93
2018-04-22T19:14:18.033Z,3.60
2018-04-22T19:16:47.026Z,2.20
2018-04-22T19:19:16.031Z,2.90
2018-04-22T19:21:44.265Z,2.90
2018-04-22T19:24:12.503Z,3.80
2018-04-22T19:26:40.733Z,4.37
2018-04-22T19:29:09.751Z,2.83
2018-04-22T19:31:37.983Z,4.77
2018-04-22T19:34:06.210Z,2.93
2018-04-22T19:36:34.459Z,3.20
2018-04-22T19:39:02.695Z,4.27
2018-04-22T19:41:30.962Z,2.43
2018-04-22T19:43:59.195Z,6.23
2018-04-22T19:46:27.430Z,2.60
2018-04-22T19:48:56.436Z,2.60
2018-04-22T19:51:25.723Z,4.00
2018-04-22T19:53:53.945Z,4.77
2018-04-22T19:56:22.193Z,2.77
2018-04-22T19:58:50.416Z,3.60
2018-04-22T20:01:18.667Z,2.43
2018-04-22T20:03:46.900Z,5.90
2018-04-22T20:06:15.911Z,15.23
2018-04-22T20:08:44.161Z,6.00
2018-04-22T20:11:13.163Z,5.27
2018-04-22T20:13:41.391Z,6.13
2018-04-22T20:16:09.628Z,4.33
2018-04-22T20:18:38.370Z,6.73
2018-04-22T20:21:06.830Z,5.10
2018-04-22T20:23:35.043Z,7.37
2018-04-22T20:26:03.276Z,5.50
2018-04-22T20:28:31.504Z,4.30
2018-04-22T20:31:00.819Z,4.43
2018-04-22T20:33:29.051Z,4.90
2018-04-22T20:35:57.287Z,6.43
2018-04-22T20:38:25.519Z,5.60
2018-04-22T20:40:54.650Z,4.80
2018-04-22T20:43:22.874Z,5.00
2018-04-22T20:45:51.879Z,6.67
2018-04-22T20:48:20.128Z,7.07
2018-04-22T20:50:48.369Z,6.37
2018-04-22T20:53:16.595Z,5.30
2018-04-22T20:55:45.606Z,7.40
2018-04-22T20:58:13.839Z,7.83
2018-04-22T21:00:42.076Z,5.50
2018-04-22T21:03:10.311Z,7.30
2018-04-22T21:05:38.552Z,6.50
2018-04-22T21:08:06.775Z,8.37
2018-04-22T21:10:35.011Z,8.13
2018-04-22T21:13:03.236Z,6.83
2018-04-22T21:15:31.483Z,7.20
2018-04-22T21:17:59.734Z,6.77
2018-04-22T21:20:27.976Z,9.43
2018-04-22T21:22:56.227Z,8.30
2018-04-22T21:25:24.462Z,7.20
2018-04-22T21:27:53.510Z,7.57
2018-04-22T21:30:21.740Z,8.23
2018-04-22T21:32:50.741Z,7.40
2018-04-22T21:35:19.289Z,7.10
2018-04-22T21:37:47.518Z,6.97
2018-04-22T21:40:15.734Z,6.80
2018-04-22T21:42:43.970Z,7.17
2018-04-22T21:45:12.191Z,7.30
2018-04-22T21:47:41.205Z,8.50
2018-04-22T21:50:10.199Z,8.33
2018-04-22T21:52:38.440Z,8.20
2018-04-22T21:55:06.663Z,8.13
2018-04-22T21:57:34.907Z,7.50
2018-04-22T22:00:03.904Z,7.87
2018-04-22T22:02:32.911Z,8.90
2018-04-22T22:05:01.149Z,8.93
2018-04-22T22:07:29.379Z,9.17
2018-04-22T22:09:57.620Z,8.97
2018-04-22T22:12:25.867Z,10.70
2018-04-22T22:14:55.264Z,8.67
2018-04-22T22:17:23.481Z,10.43
2018-04-22T22:19:52.024Z,9.57
2018-04-22T22:22:20.263Z,8.90
2018-04-22T22:24:48.495Z,9.93
2018-04-22T22:27:16.745Z,9.83
2018-04-22T22:29:44.971Z,8.20
2018-04-22T22:32:13.207Z,9.30
2018-04-22T22:34:42.207Z,8.70
2018-04-22T22:37:10.451Z,12.27
2018-04-22T22:39:38.684Z,8.70
2018-04-22T22:42:06.918Z,9.40
2018-04-22T22:44:35.914Z,8.10
2018-04-22T22:47:04.923Z,10.43
2018-04-22T22:49:33.153Z,9.20
2018-04-22T22:52:01.399Z,8.93
2018-04-22T22:54:29.630Z,9.03
2018-04-22T22:56:57.872Z,9.37
2018-04-22T22:59:26.099Z,9.40
2018-04-22T23:01:54.343Z,11.57
2018-04-22T23:04:23.347Z,10.60
2018-04-22T23:06:51.584Z,8.67
2018-04-22T23:09:19.806Z,8.87
2018-04-22T23:11:48.047Z,10.30
2018-04-22T23:14:17.039Z,9.13
2018-04-22T23:16:45.280Z,9.20
2018-04-22T23:19:13.514Z,9.90
2018-04-22T23:21:41.752Z,10.07
2018-04-22T23:24:09.996Z,10.43
2018-04-22T23:26:38.233Z,10.27
2018-04-22T23:29:06.478Z,10.40
2018-04-22T23:31:35.490Z,11.77
2018-04-22T23:34:03.755Z,11.53
2018-04-22T23:36:32.749Z,12.40
2018-04-22T23:39:01.771Z,12.00
2018-04-22T23:41:30.011Z,13.97
2018-04-22T23:43:59.018Z,11.90
2018-04-22T23:46:27.260Z,11.63
2018-04-22T23:48:55.516Z,11.47
2018-04-22T23:51:23.756Z,12.60
2018-04-22T23:53:52.004Z,12.43
2018-04-22T23:56:21.007Z,11.90
2018-04-22T23:58:49.263Z,11.67
